DLH5RJ LJLJ-EDDF
Flight info
| Callsign | DLH5RJ |
|---|---|
| Flight time | 1h 0m |
| Altitude | 38000 |
| Route | GIMIX1Z GIMIX DCT RASTA DCT SIMBA DCT AKINI T161 ERNAS/N0424F360 T161 GOLMO/N0366F280 T161 DEBHI DEBHI1B |
| Aircraft | E190/M-SDE2E3GIJ1RWY/LB1 |
Departure
| Time | 2026-04-16 08:39 |
|---|---|
| Airport | Ljubljana Jože Pučnik Airport (LJLJ) |
Arrival
| Time | 2026-04-16 09:39 |
|---|---|
| Airport | Frankfurt Main Airport (EDDF) |
| Time | Latitude | Longitude | Altitude | Speed | Heading |
|---|---|---|---|---|---|
| 2026-04-16 08:08 | 46.23028 | 14.45421 | 1257 ft | 0 kts | 36° |
| 2026-04-16 08:28 | 46.23024 | 14.45417 | 1257 ft | 3 kts | 37° |
| 2026-04-16 08:29 | 46.23004 | 14.45392 | 1259 ft | 4 kts | 50° |
| 2026-04-16 08:29 | 46.22990 | 14.45361 | 1265 ft | 4 kts | 81° |
| 2026-04-16 08:29 | 46.22992 | 14.45335 | 1267 ft | 0 kts | 127° |
| 2026-04-16 08:32 | 46.22991 | 14.45336 | 1257 ft | 1 kts | 127° |
| 2026-04-16 08:32 | 46.22977 | 14.45362 | 1262 ft | 5 kts | 127° |
| 2026-04-16 08:32 | 46.22956 | 14.45401 | 1257 ft | 5 kts | 134° |
| 2026-04-16 08:32 | 46.22924 | 14.45398 | 1257 ft | 5 kts | 207° |
| 2026-04-16 08:33 | 46.22889 | 14.45362 | 1264 ft | 7 kts | 216° |
| 2026-04-16 08:33 | 46.22843 | 14.45323 | 1266 ft | 8 kts | 187° |
| 2026-04-16 08:33 | 46.22800 | 14.45380 | 1264 ft | 10 kts | 126° |
| 2026-04-16 08:33 | 46.22754 | 14.45472 | 1265 ft | 13 kts | 126° |
| 2026-04-16 08:34 | 46.22691 | 14.45592 | 1256 ft | 17 kts | 128° |
| 2026-04-16 08:34 | 46.22613 | 14.45740 | 1246 ft | 17 kts | 125° |
| 2026-04-16 08:34 | 46.22535 | 14.45896 | 1255 ft | 21 kts | 126° |
| 2026-04-16 08:34 | 46.22453 | 14.46057 | 1250 ft | 19 kts | 126° |
| 2026-04-16 08:35 | 46.22370 | 14.46220 | 1247 ft | 20 kts | 126° |
| 2026-04-16 08:35 | 46.22285 | 14.46386 | 1230 ft | 20 kts | 126° |
| 2026-04-16 08:35 | 46.22194 | 14.46565 | 1222 ft | 23 kts | 126° |
| 2026-04-16 08:35 | 46.22090 | 14.46766 | 1216 ft | 27 kts | 126° |
| 2026-04-16 08:36 | 46.21991 | 14.46962 | 1214 ft | 22 kts | 126° |
| 2026-04-16 08:36 | 46.21894 | 14.47151 | 1211 ft | 24 kts | 126° |
| 2026-04-16 08:36 | 46.21804 | 14.47329 | 1207 ft | 16 kts | 126° |
| 2026-04-16 08:36 | 46.21734 | 14.47463 | 1205 ft | 18 kts | 126° |
| 2026-04-16 08:37 | 46.21660 | 14.47598 | 1195 ft | 13 kts | 144° |
| 2026-04-16 08:37 | 46.21582 | 14.47558 | 1196 ft | 13 kts | 218° |
| 2026-04-16 08:37 | 46.21521 | 14.47459 | 1196 ft | 13 kts | 258° |
| 2026-04-16 08:37 | 46.21539 | 14.47383 | 1199 ft | 0 kts | 306° |
| 2026-04-16 08:38 | 46.21635 | 14.47196 | 1207 ft | 57 kts | 307° |
| 2026-04-16 08:38 | 46.22009 | 14.46464 | 1228 ft | 123 kts | 306° |
| 2026-04-16 08:38 | 46.22614 | 14.45298 | 1510 ft | 154 kts | 307° |
| 2026-04-16 08:39 | 46.23267 | 14.44024 | 2185 ft | 162 kts | 306° |
| 2026-04-16 08:39 | 46.23925 | 14.42643 | 2720 ft | 172 kts | 298° |
| 2026-04-16 08:39 | 46.24281 | 14.40949 | 3273 ft | 181 kts | 278° |
| 2026-04-16 08:39 | 46.24402 | 14.39080 | 3806 ft | 192 kts | 275° |
| 2026-04-16 08:40 | 46.24499 | 14.37095 | 4344 ft | 203 kts | 275° |
| 2026-04-16 08:40 | 46.24604 | 14.35009 | 4862 ft | 215 kts | 275° |
| 2026-04-16 08:40 | 46.24720 | 14.32762 | 5388 ft | 231 kts | 275° |
| 2026-04-16 08:40 | 46.24840 | 14.30419 | 6159 ft | 236 kts | 275° |
| 2026-04-16 08:41 | 46.24964 | 14.28047 | 6965 ft | 237 kts | 275° |
| 2026-04-16 08:41 | 46.25126 | 14.25661 | 7654 ft | 247 kts | 282° |
| 2026-04-16 08:41 | 46.25774 | 14.23295 | 8106 ft | 263 kts | 305° |
| 2026-04-16 08:41 | 46.27141 | 14.21453 | 8572 ft | 278 kts | 332° |
| 2026-04-16 08:42 | 46.28936 | 14.20240 | 9130 ft | 291 kts | 337° |
| 2026-04-16 08:42 | 46.30812 | 14.19089 | 9912 ft | 294 kts | 336° |
| 2026-04-16 08:42 | 46.32682 | 14.17915 | 10522 ft | 306 kts | 335° |
| 2026-04-16 08:42 | 46.34718 | 14.16640 | 10630 ft | 331 kts | 336° |
| 2026-04-16 08:43 | 46.36890 | 14.15322 | 11073 ft | 343 kts | 336° |
| 2026-04-16 08:43 | 46.39095 | 14.13949 | 11751 ft | 346 kts | 335° |
| 2026-04-16 08:43 | 46.41298 | 14.12533 | 12496 ft | 347 kts | 334° |
| 2026-04-16 08:43 | 46.43504 | 14.11111 | 13220 ft | 348 kts | 335° |
| 2026-04-16 08:44 | 46.45730 | 14.09689 | 13859 ft | 351 kts | 335° |
| 2026-04-16 08:44 | 46.47975 | 14.08266 | 14452 ft | 354 kts | 335° |
| 2026-04-16 08:44 | 46.50251 | 14.06833 | 15056 ft | 357 kts | 335° |
| 2026-04-16 08:44 | 46.52545 | 14.05392 | 15593 ft | 361 kts | 335° |
| 2026-04-16 08:45 | 46.54858 | 14.03946 | 16146 ft | 364 kts | 335° |
| 2026-04-16 08:45 | 46.57194 | 14.02484 | 16693 ft | 367 kts | 335° |
| 2026-04-16 08:45 | 46.59545 | 14.01011 | 17235 ft | 370 kts | 335° |
| 2026-04-16 08:45 | 46.61921 | 13.99521 | 17782 ft | 373 kts | 335° |
| 2026-04-16 08:46 | 46.64284 | 13.98044 | 18313 ft | 376 kts | 335° |
| 2026-04-16 08:46 | 46.66694 | 13.96545 | 18871 ft | 378 kts | 336° |
| 2026-04-16 08:46 | 46.69122 | 13.95032 | 19414 ft | 381 kts | 336° |
| 2026-04-16 08:46 | 46.71571 | 13.93502 | 19978 ft | 384 kts | 336° |
| 2026-04-16 08:47 | 46.74035 | 13.91971 | 20530 ft | 387 kts | 336° |
| 2026-04-16 08:47 | 46.76515 | 13.90425 | 21055 ft | 389 kts | 336° |
| 2026-04-16 08:47 | 46.79020 | 13.88869 | 21540 ft | 392 kts | 336° |
| 2026-04-16 08:47 | 46.81537 | 13.87318 | 22023 ft | 394 kts | 337° |
| 2026-04-16 08:48 | 46.84071 | 13.85762 | 22467 ft | 396 kts | 337° |
| 2026-04-16 08:48 | 46.86614 | 13.84200 | 22896 ft | 398 kts | 337° |
| 2026-04-16 08:48 | 46.89177 | 13.82630 | 23320 ft | 400 kts | 337° |
| 2026-04-16 08:48 | 46.91748 | 13.81055 | 23724 ft | 402 kts | 337° |
| 2026-04-16 08:49 | 46.94335 | 13.79476 | 24120 ft | 404 kts | 337° |
| 2026-04-16 08:49 | 46.96937 | 13.77887 | 24509 ft | 406 kts | 337° |
| 2026-04-16 08:49 | 46.99522 | 13.76312 | 24912 ft | 408 kts | 338° |
| 2026-04-16 08:49 | 47.02151 | 13.74709 | 25300 ft | 410 kts | 338° |
| 2026-04-16 08:50 | 47.04791 | 13.73102 | 25710 ft | 412 kts | 338° |
| 2026-04-16 08:50 | 47.07450 | 13.71479 | 26102 ft | 414 kts | 338° |
| 2026-04-16 08:50 | 47.10116 | 13.69863 | 26481 ft | 416 kts | 338° |
| 2026-04-16 08:50 | 47.12792 | 13.68237 | 26872 ft | 417 kts | 338° |
| 2026-04-16 08:51 | 47.15477 | 13.66608 | 27188 ft | 418 kts | 338° |
| 2026-04-16 08:51 | 47.18179 | 13.64978 | 27450 ft | 421 kts | 338° |
| 2026-04-16 08:51 | 47.20899 | 13.63338 | 27766 ft | 422 kts | 338° |
| 2026-04-16 08:51 | 47.23620 | 13.61694 | 28051 ft | 424 kts | 338° |
| 2026-04-16 08:52 | 47.26352 | 13.60048 | 28350 ft | 425 kts | 338° |
| 2026-04-16 08:52 | 47.29096 | 13.58394 | 28620 ft | 427 kts | 338° |
| 2026-04-16 08:52 | 47.31810 | 13.56760 | 28874 ft | 428 kts | 338° |
| 2026-04-16 08:52 | 47.34609 | 13.55077 | 29146 ft | 429 kts | 338° |
| 2026-04-16 08:53 | 47.37338 | 13.53430 | 29493 ft | 429 kts | 338° |
| 2026-04-16 08:53 | 47.40094 | 13.51757 | 29890 ft | 427 kts | 338° |
| 2026-04-16 08:53 | 47.42836 | 13.50088 | 30308 ft | 425 kts | 338° |
| 2026-04-16 08:53 | 47.45570 | 13.48425 | 30705 ft | 424 kts | 338° |
| 2026-04-16 08:54 | 47.48291 | 13.46775 | 31098 ft | 422 kts | 338° |
| 2026-04-16 08:54 | 47.51010 | 13.45130 | 31437 ft | 422 kts | 338° |
| 2026-04-16 08:54 | 47.53721 | 13.43492 | 31762 ft | 421 kts | 338° |
| 2026-04-16 08:54 | 47.56425 | 13.41850 | 32093 ft | 419 kts | 338° |
| 2026-04-16 08:55 | 47.58213 | 13.40772 | 32293 ft | 419 kts | 338° |
| 2026-04-16 08:55 | 47.60908 | 13.39153 | 32575 ft | 418 kts | 338° |
| 2026-04-16 08:55 | 47.63601 | 13.37533 | 32883 ft | 417 kts | 338° |
| 2026-04-16 08:55 | 47.67160 | 13.35389 | 33262 ft | 416 kts | 338° |
| 2026-04-16 08:56 | 47.69837 | 13.33779 | 33502 ft | 416 kts | 338° |
| 2026-04-16 08:56 | 47.72513 | 13.32168 | 33784 ft | 414 kts | 338° |
| 2026-04-16 08:56 | 47.74320 | 13.31080 | 33992 ft | 413 kts | 338° |
| 2026-04-16 08:56 | 47.76982 | 13.29475 | 34262 ft | 413 kts | 338° |
| 2026-04-16 08:57 | 47.79640 | 13.27875 | 34527 ft | 412 kts | 338° |
| 2026-04-16 08:57 | 47.82300 | 13.26275 | 34776 ft | 412 kts | 338° |
| 2026-04-16 08:57 | 47.84957 | 13.24673 | 35040 ft | 411 kts | 338° |
| 2026-04-16 08:57 | 47.87608 | 13.23078 | 35308 ft | 411 kts | 338° |
| 2026-04-16 08:58 | 47.90259 | 13.21484 | 35547 ft | 412 kts | 338° |
| 2026-04-16 08:58 | 47.92884 | 13.19905 | 35795 ft | 411 kts | 338° |
| 2026-04-16 08:58 | 47.95536 | 13.18308 | 36031 ft | 410 kts | 338° |
| 2026-04-16 08:58 | 47.98186 | 13.16713 | 36250 ft | 410 kts | 338° |
| 2026-04-16 08:59 | 48.00832 | 13.15122 | 36474 ft | 410 kts | 338° |
| 2026-04-16 08:59 | 48.03477 | 13.13531 | 36694 ft | 410 kts | 338° |
| 2026-04-16 08:59 | 48.06126 | 13.11938 | 36924 ft | 410 kts | 337° |
| 2026-04-16 08:59 | 48.08763 | 13.10351 | 37271 ft | 407 kts | 337° |
| 2026-04-16 09:00 | 48.11382 | 13.08773 | 37585 ft | 405 kts | 337° |
| 2026-04-16 09:00 | 48.13998 | 13.07198 | 37786 ft | 405 kts | 337° |
| 2026-04-16 09:00 | 48.16614 | 13.05622 | 37992 ft | 405 kts | 337° |
| 2026-04-16 09:00 | 48.19238 | 13.04044 | 38151 ft | 406 kts | 337° |
| 2026-04-16 09:01 | 48.24128 | 13.00176 | 38380 ft | 399 kts | 317° |
| 2026-04-16 09:01 | 48.26019 | 12.97197 | 38395 ft | 400 kts | 311° |
| 2026-04-16 09:01 | 48.27866 | 12.94056 | 38256 ft | 404 kts | 311° |
| 2026-04-16 09:02 | 48.29724 | 12.90876 | 38270 ft | 405 kts | 311° |
| 2026-04-16 09:02 | 48.33443 | 12.84485 | 38266 ft | 407 kts | 311° |
| 2026-04-16 09:03 | 48.37181 | 12.78057 | 38268 ft | 409 kts | 311° |
| 2026-04-16 09:03 | 48.40937 | 12.71584 | 38248 ft | 411 kts | 311° |
| 2026-04-16 09:04 | 48.44690 | 12.65102 | 38253 ft | 410 kts | 310° |
| 2026-04-16 09:04 | 48.48438 | 12.58612 | 38256 ft | 410 kts | 310° |
| 2026-04-16 09:05 | 48.52175 | 12.52121 | 38257 ft | 410 kts | 310° |
| 2026-04-16 09:05 | 48.55640 | 12.45317 | 38270 ft | 408 kts | 302° |
| 2026-04-16 09:06 | 48.58691 | 12.38064 | 38257 ft | 409 kts | 302° |
| 2026-04-16 09:06 | 48.61709 | 12.30841 | 38258 ft | 409 kts | 302° |
| 2026-04-16 09:07 | 48.64744 | 12.23556 | 38257 ft | 409 kts | 302° |
| 2026-04-16 09:07 | 48.67775 | 12.16274 | 38262 ft | 409 kts | 302° |
| 2026-04-16 09:08 | 48.70802 | 12.08988 | 38267 ft | 408 kts | 302° |
| 2026-04-16 09:08 | 48.73818 | 12.01706 | 38255 ft | 408 kts | 301° |
| 2026-04-16 09:09 | 48.76824 | 11.94418 | 38259 ft | 408 kts | 301° |
| 2026-04-16 09:09 | 48.79810 | 11.87159 | 38258 ft | 408 kts | 301° |
| 2026-04-16 09:10 | 48.82809 | 11.79851 | 38261 ft | 407 kts | 300° |
| 2026-04-16 09:10 | 48.85803 | 11.72540 | 38257 ft | 407 kts | 300° |
| 2026-04-16 09:11 | 48.88785 | 11.65227 | 38260 ft | 407 kts | 300° |
| 2026-04-16 09:11 | 48.91776 | 11.57889 | 38257 ft | 407 kts | 300° |
| 2026-04-16 09:12 | 48.94754 | 11.50564 | 38261 ft | 407 kts | 300° |
| 2026-04-16 09:12 | 48.97724 | 11.43228 | 38259 ft | 407 kts | 300° |
| 2026-04-16 09:13 | 49.00669 | 11.35936 | 38257 ft | 407 kts | 300° |
| 2026-04-16 09:13 | 49.03628 | 11.28584 | 38258 ft | 407 kts | 299° |
| 2026-04-16 09:14 | 49.06592 | 11.21193 | 38262 ft | 410 kts | 299° |
| 2026-04-16 09:14 | 49.08083 | 11.17471 | 37931 ft | 413 kts | 299° |
| 2026-04-16 09:14 | 49.09569 | 11.13773 | 37737 ft | 405 kts | 299° |
| 2026-04-16 09:14 | 49.11033 | 11.10119 | 37220 ft | 403 kts | 298° |
| 2026-04-16 09:15 | 49.12487 | 11.06479 | 36688 ft | 398 kts | 298° |
| 2026-04-16 09:15 | 49.13920 | 11.02886 | 36111 ft | 394 kts | 298° |
| 2026-04-16 09:15 | 49.15334 | 10.99340 | 35642 ft | 389 kts | 298° |
| 2026-04-16 09:15 | 49.16743 | 10.95790 | 35079 ft | 393 kts | 298° |
| 2026-04-16 09:16 | 49.18167 | 10.92201 | 34595 ft | 398 kts | 297° |
| 2026-04-16 09:16 | 49.19611 | 10.88563 | 34032 ft | 401 kts | 297° |
| 2026-04-16 09:16 | 49.21061 | 10.84912 | 33497 ft | 401 kts | 297° |
| 2026-04-16 09:16 | 49.22492 | 10.81303 | 32969 ft | 401 kts | 298° |
| 2026-04-16 09:17 | 49.23943 | 10.77646 | 32444 ft | 403 kts | 298° |
| 2026-04-16 09:17 | 49.25397 | 10.73953 | 31892 ft | 405 kts | 298° |
| 2026-04-16 09:17 | 49.26847 | 10.70257 | 31364 ft | 405 kts | 298° |
| 2026-04-16 09:17 | 49.28302 | 10.66550 | 30817 ft | 407 kts | 298° |
| 2026-04-16 09:18 | 49.29761 | 10.62833 | 30279 ft | 408 kts | 298° |
| 2026-04-16 09:18 | 49.31230 | 10.59094 | 29720 ft | 410 kts | 298° |
| 2026-04-16 09:18 | 49.32699 | 10.55353 | 29180 ft | 410 kts | 298° |
| 2026-04-16 09:18 | 49.34169 | 10.51601 | 28641 ft | 409 kts | 298° |
| 2026-04-16 09:19 | 49.35627 | 10.47871 | 28084 ft | 406 kts | 298° |
| 2026-04-16 09:19 | 49.37087 | 10.44186 | 27536 ft | 403 kts | 301° |
| 2026-04-16 09:19 | 49.38680 | 10.40660 | 27001 ft | 401 kts | 303° |
| 2026-04-16 09:19 | 49.40306 | 10.37208 | 26470 ft | 398 kts | 303° |
| 2026-04-16 09:20 | 49.41908 | 10.33768 | 25934 ft | 394 kts | 303° |
| 2026-04-16 09:20 | 49.43490 | 10.30339 | 25413 ft | 392 kts | 303° |
| 2026-04-16 09:20 | 49.45052 | 10.26930 | 24897 ft | 389 kts | 303° |
| 2026-04-16 09:20 | 49.46598 | 10.23541 | 24384 ft | 385 kts | 303° |
| 2026-04-16 09:21 | 49.48126 | 10.20182 | 23873 ft | 383 kts | 303° |
| 2026-04-16 09:21 | 49.49628 | 10.16873 | 23375 ft | 380 kts | 303° |
| 2026-04-16 09:21 | 49.51137 | 10.13546 | 22869 ft | 378 kts | 303° |
| 2026-04-16 09:21 | 49.52633 | 10.10239 | 22368 ft | 375 kts | 303° |
| 2026-04-16 09:22 | 49.54119 | 10.06952 | 21875 ft | 373 kts | 303° |
| 2026-04-16 09:22 | 49.55593 | 10.03682 | 21381 ft | 370 kts | 303° |
| 2026-04-16 09:22 | 49.57054 | 10.00436 | 20890 ft | 367 kts | 303° |
| 2026-04-16 09:22 | 49.58506 | 9.97213 | 20407 ft | 365 kts | 303° |
| 2026-04-16 09:23 | 49.59946 | 9.94006 | 19924 ft | 362 kts | 303° |
| 2026-04-16 09:23 | 49.61375 | 9.90821 | 19447 ft | 360 kts | 303° |
| 2026-04-16 09:23 | 49.62794 | 9.87659 | 18965 ft | 357 kts | 303° |
| 2026-04-16 09:23 | 49.64203 | 9.84511 | 18495 ft | 355 kts | 303° |
| 2026-04-16 09:24 | 49.65602 | 9.81382 | 18014 ft | 353 kts | 303° |
| 2026-04-16 09:24 | 49.66993 | 9.78274 | 17555 ft | 351 kts | 303° |
| 2026-04-16 09:24 | 49.68375 | 9.75178 | 17098 ft | 349 kts | 303° |
| 2026-04-16 09:24 | 49.69748 | 9.72095 | 16622 ft | 347 kts | 303° |
| 2026-04-16 09:25 | 49.71112 | 9.69032 | 16160 ft | 346 kts | 303° |
| 2026-04-16 09:25 | 49.72467 | 9.65980 | 15707 ft | 343 kts | 303° |
| 2026-04-16 09:25 | 49.73816 | 9.62942 | 15251 ft | 341 kts | 303° |
| 2026-04-16 09:25 | 49.75135 | 9.59967 | 14761 ft | 335 kts | 303° |
| 2026-04-16 09:26 | 49.76428 | 9.57043 | 14348 ft | 324 kts | 303° |
| 2026-04-16 09:26 | 49.77686 | 9.54208 | 13920 ft | 316 kts | 303° |
| 2026-04-16 09:26 | 49.78908 | 9.51442 | 13508 ft | 307 kts | 303° |
| 2026-04-16 09:26 | 49.80170 | 9.48824 | 13139 ft | 300 kts | 313° |
| 2026-04-16 09:27 | 49.81695 | 9.46683 | 12870 ft | 290 kts | 317° |
| 2026-04-16 09:27 | 49.83212 | 9.44699 | 12655 ft | 281 kts | 317° |
| 2026-04-16 09:27 | 49.84696 | 9.42751 | 12577 ft | 277 kts | 317° |
| 2026-04-16 09:27 | 49.86174 | 9.40792 | 12586 ft | 285 kts | 317° |
| 2026-04-16 09:28 | 49.87704 | 9.38762 | 12151 ft | 291 kts | 317° |
| 2026-04-16 09:28 | 49.89240 | 9.36733 | 11736 ft | 289 kts | 317° |
| 2026-04-16 09:28 | 49.90740 | 9.34739 | 11317 ft | 286 kts | 317° |
| 2026-04-16 09:28 | 49.92243 | 9.32733 | 10923 ft | 283 kts | 317° |
| 2026-04-16 09:29 | 49.93726 | 9.30756 | 10558 ft | 280 kts | 317° |
| 2026-04-16 09:29 | 49.95201 | 9.28785 | 10191 ft | 279 kts | 318° |
| 2026-04-16 09:29 | 49.96678 | 9.26818 | 9821 ft | 280 kts | 318° |
| 2026-04-16 09:29 | 49.98169 | 9.24814 | 9170 ft | 288 kts | 318° |
| 2026-04-16 09:30 | 49.99660 | 9.22789 | 8815 ft | 280 kts | 318° |
| 2026-04-16 09:30 | 50.01123 | 9.20825 | 8446 ft | 275 kts | 318° |
| 2026-04-16 09:30 | 50.02562 | 9.18892 | 8083 ft | 272 kts | 318° |
| 2026-04-16 09:30 | 50.03991 | 9.16964 | 7731 ft | 272 kts | 317° |
| 2026-04-16 09:31 | 50.05422 | 9.15024 | 7362 ft | 274 kts | 317° |
| 2026-04-16 09:31 | 50.06867 | 9.13072 | 6981 ft | 274 kts | 318° |
| 2026-04-16 09:31 | 50.08285 | 9.11162 | 6588 ft | 263 kts | 318° |
| 2026-04-16 09:31 | 50.09604 | 9.09380 | 6253 ft | 246 kts | 317° |
| 2026-04-16 09:32 | 50.10865 | 9.07667 | 5943 ft | 235 kts | 317° |
| 2026-04-16 09:32 | 50.12085 | 9.06007 | 5664 ft | 233 kts | 317° |
| 2026-04-16 09:32 | 50.13312 | 9.04315 | 5393 ft | 237 kts | 313° |
| 2026-04-16 09:32 | 50.14074 | 9.02092 | 4991 ft | 237 kts | 275° |
| 2026-04-16 09:33 | 50.13804 | 8.99583 | 4653 ft | 238 kts | 246° |
| 2026-04-16 09:33 | 50.13066 | 8.97287 | 4340 ft | 237 kts | 246° |
| 2026-04-16 09:33 | 50.12504 | 8.94881 | 4005 ft | 236 kts | 253° |
| 2026-04-16 09:33 | 50.12016 | 8.92517 | 4052 ft | 223 kts | 250° |
| 2026-04-16 09:34 | 50.11467 | 8.90323 | 4076 ft | 212 kts | 249° |
| 2026-04-16 09:34 | 50.10968 | 8.88239 | 4044 ft | 206 kts | 251° |
| 2026-04-16 09:34 | 50.10498 | 8.86151 | 3990 ft | 202 kts | 250° |
| 2026-04-16 09:34 | 50.10008 | 8.84044 | 3720 ft | 213 kts | 250° |
| 2026-04-16 09:35 | 50.09486 | 8.81888 | 3477 ft | 211 kts | 250° |
| 2026-04-16 09:35 | 50.08984 | 8.79749 | 3213 ft | 209 kts | 250° |
| 2026-04-16 09:35 | 50.08495 | 8.77636 | 2920 ft | 205 kts | 250° |
| 2026-04-16 09:35 | 50.08005 | 8.75569 | 2636 ft | 202 kts | 249° |
| 2026-04-16 09:36 | 50.07529 | 8.73567 | 2370 ft | 189 kts | 249° |
| 2026-04-16 09:36 | 50.07104 | 8.71755 | 2129 ft | 170 kts | 249° |
| 2026-04-16 09:36 | 50.06713 | 8.70096 | 1897 ft | 157 kts | 248° |
| 2026-04-16 09:36 | 50.06343 | 8.68537 | 1697 ft | 151 kts | 248° |
| 2026-04-16 09:37 | 50.05979 | 8.67002 | 1521 ft | 152 kts | 248° |
| 2026-04-16 09:37 | 50.05623 | 8.65489 | 1298 ft | 145 kts | 248° |
| 2026-04-16 09:37 | 50.05286 | 8.64063 | 1095 ft | 137 kts | 248° |
| 2026-04-16 09:37 | 50.04958 | 8.62691 | 930 ft | 137 kts | 248° |
| 2026-04-16 09:38 | 50.04627 | 8.61286 | 764 ft | 140 kts | 248° |
| 2026-04-16 09:38 | 50.04285 | 8.59850 | 578 ft | 142 kts | 249° |
| 2026-04-16 09:38 | 50.03941 | 8.58400 | 398 ft | 142 kts | 248° |
| 2026-04-16 09:38 | 50.03624 | 8.57070 | 354 ft | 118 kts | 250° |
| 2026-04-16 09:39 | 50.03385 | 8.56048 | 353 ft | 78 kts | 251° |
| 2026-04-16 09:39 | 50.03311 | 8.55524 | 342 ft | 29 kts | 276° |
| 2026-04-16 09:39 | 50.03336 | 8.55309 | 346 ft | 17 kts | 279° |
| 2026-04-16 09:39 | 50.03391 | 8.55169 | 344 ft | 15 kts | 360° |
| 2026-04-16 09:40 | 50.03449 | 8.55293 | 348 ft | 15 kts | 70° |
| 2026-04-16 09:40 | 50.03488 | 8.55459 | 344 ft | 18 kts | 70° |
| 2026-04-16 09:40 | 50.03533 | 8.55647 | 354 ft | 19 kts | 70° |
| 2026-04-16 09:40 | 50.03580 | 8.55844 | 354 ft | 19 kts | 69° |
| 2026-04-16 09:41 | 50.03627 | 8.56040 | 356 ft | 19 kts | 70° |
| 2026-04-16 09:41 | 50.03674 | 8.56239 | 355 ft | 20 kts | 69° |
| 2026-04-16 09:41 | 50.03725 | 8.56448 | 351 ft | 22 kts | 69° |
| 2026-04-16 09:41 | 50.03778 | 8.56673 | 353 ft | 23 kts | 70° |
| 2026-04-16 09:42 | 50.03836 | 8.56913 | 357 ft | 24 kts | 69° |
| 2026-04-16 09:42 | 50.03893 | 8.57154 | 360 ft | 23 kts | 70° |
| 2026-04-16 09:42 | 50.03947 | 8.57380 | 364 ft | 22 kts | 69° |
| 2026-04-16 09:42 | 50.04002 | 8.57610 | 367 ft | 23 kts | 70° |
| 2026-04-16 09:43 | 50.04059 | 8.57848 | 367 ft | 24 kts | 69° |
| 2026-04-16 09:43 | 50.04120 | 8.58097 | 368 ft | 25 kts | 69° |
| 2026-04-16 09:43 | 50.04181 | 8.58355 | 369 ft | 26 kts | 70° |
| 2026-04-16 09:43 | 50.04245 | 8.58620 | 368 ft | 27 kts | 69° |
| 2026-04-16 09:44 | 50.04309 | 8.58888 | 373 ft | 26 kts | 70° |
| 2026-04-16 09:44 | 50.04371 | 8.59147 | 375 ft | 26 kts | 69° |
| 2026-04-16 09:44 | 50.04437 | 8.59417 | 374 ft | 23 kts | 69° |
| 2026-04-16 09:44 | 50.04539 | 8.59471 | 373 ft | 16 kts | 356° |
| 2026-04-16 09:45 | 50.04661 | 8.59455 | 371 ft | 19 kts | 349° |
| 2026-04-16 09:45 | 50.04766 | 8.59404 | 371 ft | 15 kts | 339° |
| 2026-04-16 09:45 | 50.04833 | 8.59475 | 369 ft | 13 kts | 68° |
| 2026-04-16 09:45 | 50.04845 | 8.59559 | 369 ft | 4 kts | 82° |
| 2026-04-16 09:46 | 50.04856 | 8.59622 | 369 ft | 7 kts | 70° |
| 2026-04-16 09:46 | 50.04871 | 8.59647 | 369 ft | 2 kts | 11° |
| 2026-04-16 09:46 | 50.04876 | 8.59633 | 369 ft | 2 kts | 295° |
| 2026-04-16 09:46 | 50.04886 | 8.59600 | 368 ft | 3 kts | 296° |
| 2026-04-16 09:47 | 50.04890 | 8.59587 | 368 ft | 1 kts | 297° |
| 2026-04-16 09:47 | 50.04891 | 8.59585 | 368 ft | 0 kts | 297° |